Terminal Aerodrome Forecast
Issued by NWS

Home | Current Version | Previous Version | Text Only | Print | Product List | Glossary Off
Versions: 1 2 3 4 5 6 7 8 9 10 11 12 13 14 15 16 17 18 19 20 21 22

000
FTUS43 KICT 311202 AAA
TAFCNU
TAF AMD
KCNU 311202Z 3112/0112 VRB03KT 5SM BR BKN040
     FM311500 15007KT P6SM VCTS BKN025CB
     FM010300 VRB03KT P6SM BKN050 BKN100=

USA.gov is the U.S. government's official web portal to all federal, state and local government web resources and services.